createdAt,value
2018-05-13T00:01:35.551Z,65.61
2018-05-13T00:04:03.970Z,65.15
2018-05-13T00:06:33.787Z,64.57
2018-05-13T00:09:02.284Z,65.21
2018-05-13T00:11:30.720Z,65.09
2018-05-13T00:13:59.204Z,64.85
2018-05-13T00:16:27.610Z,64.85
2018-05-13T00:18:56.035Z,66.17
2018-05-13T00:21:24.440Z,67.04
2018-05-13T00:23:52.832Z,67.75
2018-05-13T00:26:23.676Z,68.10
2018-05-13T00:28:52.095Z,67.76
2018-05-13T00:31:20.576Z,67.81
2018-05-13T00:33:49.322Z,67.35
2018-05-13T00:36:19.792Z,66.99
2018-05-13T00:38:48.153Z,65.78
2018-05-13T00:41:16.587Z,65.62
2018-05-13T00:43:44.996Z,66.05
2018-05-13T00:46:13.440Z,67.09
2018-05-13T00:48:43.995Z,67.33
2018-05-13T00:51:13.488Z,67.21
2018-05-13T00:53:41.892Z,68.42
2018-05-13T00:56:10.373Z,68.61
2018-05-13T00:58:38.784Z,69.03
2018-05-13T01:01:07.214Z,68.73
2018-05-13T01:03:35.637Z,68.06
2018-05-13T01:06:04.080Z,68.19
2018-05-13T01:08:34.603Z,67.52
2018-05-13T01:11:04.680Z,67.39
2018-05-13T01:13:33.111Z,67.28
2018-05-13T01:16:01.563Z,67.94
2018-05-13T01:18:29.992Z,68.01
2018-05-13T01:20:58.411Z,68.18
2018-05-13T01:23:27.180Z,68.82
2018-05-13T01:25:55.616Z,68.41
2018-05-13T01:28:24.051Z,68.67
2018-05-13T01:30:52.434Z,68.64
2018-05-13T01:33:20.852Z,68.12
2018-05-13T01:35:49.642Z,67.51
2018-05-13T01:38:19.198Z,67.62
2018-05-13T01:40:48.670Z,68.58
2018-05-13T01:43:17.032Z,69.65
2018-05-13T01:45:45.414Z,69.80
2018-05-13T01:48:13.858Z,69.68
2018-05-13T01:50:45.579Z,69.24
2018-05-13T01:53:13.945Z,69.26
2018-05-13T01:55:42.295Z,68.90
2018-05-13T01:58:10.611Z,69.57
2018-05-13T02:00:38.962Z,70.77
2018-05-13T02:03:07.315Z,70.03
2018-05-13T02:05:35.722Z,70.62
2018-05-13T02:08:04.122Z,70.50
2018-05-13T02:10:32.914Z,70.91
2018-05-13T02:13:01.283Z,70.71
2018-05-13T02:15:29.602Z,70.63
2018-05-13T02:17:58.967Z,70.80
2018-05-13T02:20:27.602Z,70.50
2018-05-13T02:22:57.512Z,70.57
2018-05-13T02:25:25.866Z,70.92
2018-05-13T02:27:55.456Z,71.69
2018-05-13T02:30:23.811Z,71.61
2018-05-13T02:32:52.219Z,71.47
2018-05-13T02:35:21.763Z,71.08
2018-05-13T02:37:51.280Z,71.07
2018-05-13T02:40:20.015Z,71.18
2018-05-13T02:42:48.350Z,71.49
2018-05-13T02:45:16.676Z,71.11
2018-05-13T02:47:45.339Z,71.71
2018-05-13T02:50:13.700Z,71.62
2018-05-13T02:52:42.111Z,71.44
2018-05-13T02:55:10.492Z,70.39
2018-05-13T02:57:38.828Z,71.34
2018-05-13T03:00:09.282Z,72.53
2018-05-13T03:02:37.686Z,72.49
2018-05-13T03:05:06.054Z,71.79
2018-05-13T03:07:38.792Z,71.55
2018-05-13T03:10:07.143Z,72.07
2018-05-13T03:12:36.626Z,71.80
2018-05-13T03:15:05.377Z,71.60
2018-05-13T03:17:33.723Z,72.21
2018-05-13T03:20:02.127Z,71.72
2018-05-13T03:22:30.499Z,71.92
2018-05-13T03:24:58.790Z,72.57
2018-05-13T03:27:27.498Z,72.49
2018-05-13T03:29:55.847Z,72.36
2018-05-13T03:32:24.206Z,72.48
2018-05-13T03:34:55.167Z,72.41
2018-05-13T03:37:24.460Z,72.44
2018-05-13T03:39:52.862Z,72.63
2018-05-13T03:42:22.758Z,72.95
2018-05-13T03:44:53.304Z,72.71
2018-05-13T03:47:23.436Z,72.53
2018-05-13T03:49:51.898Z,73.31
2018-05-13T03:52:20.605Z,73.33
2018-05-13T03:54:51.054Z,73.02
2018-05-13T03:57:19.435Z,72.73
2018-05-13T03:59:48.067Z,72.75
2018-05-13T04:02:16.422Z,71.75
2018-05-13T04:04:44.762Z,71.49
2018-05-13T04:07:13.163Z,71.36
2018-05-13T04:09:47.839Z,71.76
2018-05-13T04:12:25.438Z,72.08
2018-05-13T04:15:00.158Z,71.92
2018-05-13T04:17:30.526Z,72.18
2018-05-13T04:19:59.794Z,72.33
2018-05-13T04:22:30.632Z,72.38
2018-05-13T04:24:59.004Z,73.15
2018-05-13T04:27:28.872Z,72.93
2018-05-13T04:29:57.252Z,72.81
2018-05-13T04:32:25.633Z,72.80
2018-05-13T04:34:53.967Z,72.36
2018-05-13T04:37:31.494Z,72.21
2018-05-13T04:39:59.912Z,71.95
2018-05-13T04:42:28.254Z,72.05
2018-05-13T04:44:59.127Z,71.89
2018-05-13T04:47:27.492Z,72.11
2018-05-13T04:49:55.872Z,72.40
2018-05-13T04:52:26.334Z,72.68
2018-05-13T04:54:54.734Z,72.77
2018-05-13T04:57:25.002Z,73.61
2018-05-13T04:59:53.387Z,73.15
2018-05-13T05:02:21.761Z,73.33
2018-05-13T05:04:50.127Z,73.46
2018-05-13T05:07:18.490Z,72.15
2018-05-13T05:09:49.358Z,71.24
2018-05-13T05:12:17.707Z,71.78
2018-05-13T05:14:46.070Z,72.04
2018-05-13T05:17:14.753Z,72.14
2018-05-13T05:19:43.121Z,72.60
2018-05-13T05:22:11.508Z,72.50
2018-05-13T05:24:41.315Z,72.36
2018-05-13T05:27:09.673Z,71.43
2018-05-13T05:29:39.595Z,72.09
2018-05-13T05:32:07.950Z,72.16
2018-05-13T05:34:38.302Z,72.23
2018-05-13T05:37:06.621Z,71.90
2018-05-13T05:39:34.991Z,71.47
2018-05-13T05:42:03.387Z,71.66
2018-05-13T05:44:31.812Z,70.90
2018-05-13T05:47:00.167Z,70.80
2018-05-13T05:49:28.499Z,71.34
2018-05-13T05:51:56.935Z,71.86
2018-05-13T05:54:25.286Z,71.60
2018-05-13T05:56:53.679Z,71.51
2018-05-13T05:59:23.408Z,71.55
2018-05-13T06:01:51.766Z,71.24
2018-05-13T06:04:20.066Z,71.03
2018-05-13T06:06:49.846Z,70.72
2018-05-13T06:09:18.205Z,70.83
2018-05-13T06:11:46.527Z,70.60
2018-05-13T06:14:15.915Z,69.67
2018-05-13T06:16:44.255Z,69.27
2018-05-13T06:19:12.763Z,69.16
2018-05-13T06:21:41.111Z,69.23
2018-05-13T06:24:09.488Z,68.69
2018-05-13T06:26:37.854Z,68.98
2018-05-13T06:29:06.806Z,69.02
2018-05-13T06:31:35.227Z,69.36
2018-05-13T06:34:03.936Z,68.64
2018-05-13T06:36:32.315Z,68.69
2018-05-13T06:39:00.643Z,68.07
2018-05-13T06:41:29.346Z,68.10
2018-05-13T06:43:57.723Z,68.12
2018-05-13T06:46:26.064Z,67.55
2018-05-13T06:48:54.828Z,67.07
2018-05-13T06:51:23.339Z,67.42
2018-05-13T06:53:52.724Z,67.20
2018-05-13T06:56:21.391Z,66.91
2018-05-13T06:58:49.755Z,67.29
2018-05-13T07:01:18.100Z,67.31
2018-05-13T07:03:46.782Z,66.93
2018-05-13T07:06:15.127Z,66.81
2018-05-13T07:08:43.455Z,67.31
2018-05-13T07:11:11.864Z,67.64
2018-05-13T07:13:41.288Z,67.56
2018-05-13T07:16:11.175Z,67.79
2018-05-13T07:18:39.551Z,67.48
2018-05-13T07:21:07.907Z,67.61
2018-05-13T07:23:36.317Z,67.63
2018-05-13T07:26:04.696Z,67.39
2018-05-13T07:28:33.178Z,67.28
2018-05-13T07:31:01.966Z,67.20
2018-05-13T07:33:30.332Z,67.40
2018-05-13T07:35:58.770Z,66.99
2018-05-13T07:38:27.152Z,67.19
2018-05-13T07:40:56.655Z,67.04
2018-05-13T07:43:25.489Z,67.48
2018-05-13T07:45:53.845Z,66.86
2018-05-13T07:48:22.191Z,66.78
2018-05-13T07:50:50.558Z,66.28
2018-05-13T07:53:18.902Z,66.68
2018-05-13T07:55:47.295Z,66.78
2018-05-13T07:58:15.840Z,66.38
2018-05-13T08:00:45.772Z,65.87
2018-05-13T08:03:14.216Z,66.33
2018-05-13T08:05:44.373Z,65.73
2018-05-13T08:08:12.731Z,65.96
2018-05-13T08:10:41.145Z,65.45
2018-05-13T08:13:09.595Z,64.93
2018-05-13T08:15:39.305Z,64.94
2018-05-13T08:18:07.705Z,64.87
2018-05-13T08:20:36.143Z,64.17
2018-05-13T08:23:04.502Z,64.27
2018-05-13T08:25:34.567Z,63.43
2018-05-13T08:28:02.937Z,62.73
2018-05-13T08:30:32.732Z,63.21
2018-05-13T08:33:01.110Z,61.81
2018-05-13T08:35:30.496Z,61.60
2018-05-13T08:38:00.016Z,61.97
2018-05-13T08:40:28.478Z,61.76
2018-05-13T08:42:56.851Z,62.27
2018-05-13T08:45:25.235Z,62.08
2018-05-13T08:47:53.542Z,61.65
2018-05-13T08:50:23.127Z,61.71
2018-05-13T08:52:51.551Z,62.40
2018-05-13T08:55:19.927Z,62.30
2018-05-13T08:57:48.354Z,62.67
2018-05-13T09:00:16.738Z,62.70
2018-05-13T09:02:45.561Z,62.84
2018-05-13T09:05:13.964Z,63.49
2018-05-13T09:07:42.288Z,63.81
2018-05-13T09:10:13.670Z,64.21
2018-05-13T09:12:42.051Z,63.89
2018-05-13T09:15:10.378Z,64.24
2018-05-13T09:17:40.262Z,64.74
2018-05-13T09:20:10.164Z,64.52
2018-05-13T09:22:38.552Z,64.81
2018-05-13T09:25:06.939Z,64.60
2018-05-13T09:27:35.251Z,65.63
2018-05-13T09:30:03.736Z,65.66
2018-05-13T09:32:32.107Z,65.89
2018-05-13T09:35:00.479Z,65.83
2018-05-13T09:37:29.160Z,65.77
2018-05-13T09:39:57.527Z,65.45
2018-05-13T09:42:25.951Z,64.57
2018-05-13T09:44:55.795Z,64.80
2018-05-13T09:47:24.099Z,64.61
2018-05-13T09:49:52.448Z,63.78
2018-05-13T09:52:21.219Z,63.50
2018-05-13T09:54:50.601Z,63.58
2018-05-13T09:57:18.970Z,63.12
2018-05-13T09:59:47.399Z,62.73
2018-05-13T10:02:15.687Z,63.21
2018-05-13T10:04:44.102Z,63.95
2018-05-13T10:07:13.798Z,63.52
2018-05-13T10:09:42.110Z,63.16
2018-05-13T10:12:10.526Z,62.83
2018-05-13T10:14:38.923Z,62.26
2018-05-13T10:17:07.622Z,62.22
2018-05-13T10:19:36.072Z,62.07
2018-05-13T10:22:04.407Z,62.21
2018-05-13T10:24:32.814Z,62.21
2018-05-13T10:27:01.163Z,62.49
2018-05-13T10:29:29.499Z,62.01
2018-05-13T10:31:59.268Z,61.80
2018-05-13T10:34:27.614Z,61.49
2018-05-13T10:36:55.987Z,62.03
2018-05-13T10:39:25.892Z,61.75
2018-05-13T10:41:55.677Z,61.63
2018-05-13T10:44:24.047Z,61.68
2018-05-13T10:46:53.881Z,61.41
2018-05-13T10:49:22.264Z,62.08
2018-05-13T10:51:50.642Z,62.95
2018-05-13T10:54:19.378Z,63.34
2018-05-13T10:56:50.683Z,64.12
2018-05-13T10:59:19.023Z,64.81
2018-05-13T11:01:47.435Z,64.43
2018-05-13T11:04:16.239Z,64.94
2018-05-13T11:06:44.623Z,64.50
2018-05-13T11:09:13.000Z,64.47
2018-05-13T11:11:41.348Z,64.38
2018-05-13T11:14:11.206Z,64.19
2018-05-13T11:16:39.599Z,64.05
2018-05-13T11:19:08.308Z,64.98
2018-05-13T11:21:36.609Z,64.32
2018-05-13T11:24:04.970Z,64.58
2018-05-13T11:26:33.486Z,64.16
2018-05-13T11:29:01.886Z,64.24
2018-05-13T11:31:30.302Z,64.46
2018-05-13T11:33:58.679Z,64.37
2018-05-13T11:36:30.939Z,64.62
2018-05-13T11:39:00.688Z,64.88
2018-05-13T11:41:29.091Z,64.73
2018-05-13T11:43:57.788Z,64.32
2018-05-13T11:46:26.187Z,64.21
2018-05-13T11:48:54.591Z,64.84
2018-05-13T11:51:23.001Z,64.74
2018-05-13T11:53:52.774Z,64.69
2018-05-13T11:56:21.149Z,63.66
2018-05-13T11:58:49.548Z,63.54
2018-05-13T12:01:18.963Z,62.95
2018-05-13T12:03:47.371Z,62.74
2018-05-13T12:06:15.809Z,63.13
2018-05-13T12:08:44.236Z,63.14
2018-05-13T12:11:13.943Z,63.02
2018-05-13T12:13:42.335Z,63.40
2018-05-13T12:16:10.716Z,63.21
2018-05-13T12:18:40.151Z,63.09
2018-05-13T12:21:09.603Z,63.14
2018-05-13T12:23:37.928Z,63.53
2018-05-13T12:26:06.316Z,63.49
2018-05-13T12:28:34.676Z,63.67
2018-05-13T12:31:03.039Z,63.65
2018-05-13T12:33:31.348Z,63.13
2018-05-13T12:35:59.743Z,63.68
2018-05-13T12:38:28.104Z,63.81
2018-05-13T12:40:58.093Z,64.28
2018-05-13T12:43:26.499Z,64.90
2018-05-13T12:45:54.887Z,65.23
2018-05-13T12:48:23.614Z,66.12
2018-05-13T12:50:51.977Z,65.41
2018-05-13T12:53:21.791Z,64.84
2018-05-13T12:55:51.166Z,64.21
2018-05-13T12:58:20.608Z,63.55
2018-05-13T13:00:49.295Z,63.66
2018-05-13T13:03:17.649Z,63.59
2018-05-13T13:05:46.026Z,63.51
2018-05-13T13:08:14.747Z,63.50
2018-05-13T13:10:44.411Z,62.87
2018-05-13T13:13:12.507Z,62.55
2018-05-13T13:15:43.294Z,62.85
2018-05-13T13:18:11.665Z,61.87
2018-05-13T13:20:40.307Z,61.91
2018-05-13T13:23:08.675Z,62.12
2018-05-13T13:25:37.008Z,62.17
2018-05-13T13:28:07.037Z,62.00
2018-05-13T13:30:35.425Z,61.07
2018-05-13T13:33:03.854Z,61.28
2018-05-13T13:35:32.255Z,61.05
2018-05-13T13:38:02.057Z,61.52
2018-05-13T13:40:30.825Z,61.90
2018-05-13T13:42:59.174Z,61.97
2018-05-13T13:45:29.029Z,61.88
2018-05-13T13:47:58.048Z,62.33
2018-05-13T13:50:30.293Z,62.01
2018-05-13T13:52:58.971Z,61.52
2018-05-13T13:55:27.371Z,61.31
2018-05-13T13:57:57.454Z,61.21
2018-05-13T14:00:25.894Z,60.96
2018-05-13T14:02:54.331Z,61.40
2018-05-13T14:05:23.771Z,62.67
2018-05-13T14:07:53.635Z,62.77
2018-05-13T14:10:22.033Z,62.59
2018-05-13T14:12:50.370Z,62.57
2018-05-13T14:15:18.919Z,62.78
2018-05-13T14:17:48.859Z,63.27
2018-05-13T14:20:17.272Z,63.80
2018-05-13T14:22:45.640Z,63.35
2018-05-13T14:25:14.038Z,64.03
2018-05-13T14:27:44.959Z,64.32
2018-05-13T14:30:13.368Z,63.74
2018-05-13T14:32:41.776Z,64.00
2018-05-13T14:35:10.110Z,63.54
2018-05-13T14:37:38.792Z,63.40
2018-05-13T14:40:07.168Z,63.58
2018-05-13T14:42:36.820Z,63.63
2018-05-13T14:45:05.210Z,63.82
2018-05-13T14:47:33.577Z,63.83
2018-05-13T14:50:01.955Z,63.81
2018-05-13T14:52:30.800Z,64.07
2018-05-13T14:54:59.180Z,63.49
2018-05-13T14:57:27.612Z,63.55
2018-05-13T14:59:56.032Z,63.56
2018-05-13T15:02:24.414Z,63.43
2018-05-13T15:04:52.835Z,63.58
2018-05-13T15:07:28.707Z,63.06
2018-05-13T15:09:57.127Z,63.89
2018-05-13T15:12:26.575Z,64.86
2018-05-13T15:14:55.223Z,65.24
2018-05-13T15:17:23.625Z,65.32
2018-05-13T15:19:51.937Z,65.27
2018-05-13T15:22:20.370Z,64.88
2018-05-13T15:24:48.814Z,65.25
2018-05-13T15:27:17.815Z,65.25
2018-05-13T15:29:46.231Z,65.53
2018-05-13T15:32:15.992Z,64.92
2018-05-13T15:34:44.335Z,65.66
2018-05-13T15:37:12.785Z,66.11
2018-05-13T15:39:41.443Z,66.17
2018-05-13T15:42:09.804Z,66.46
2018-05-13T15:44:38.132Z,66.86
2018-05-13T15:47:06.483Z,66.55
2018-05-13T15:49:34.830Z,66.65
2018-05-13T15:52:03.530Z,67.11
2018-05-13T15:54:31.843Z,66.52
2018-05-13T15:57:00.215Z,66.54
2018-05-13T15:59:28.642Z,66.36
2018-05-13T16:01:57.067Z,65.31
2018-05-13T16:04:26.515Z,65.21
2018-05-13T16:06:55.059Z,65.29
2018-05-13T16:09:23.864Z,65.80
2018-05-13T16:11:53.180Z,65.85
2018-05-13T16:14:21.595Z,66.30
2018-05-13T16:16:50.290Z,66.23
2018-05-13T16:19:18.649Z,66.72
2018-05-13T16:21:47.024Z,66.46
2018-05-13T16:24:15.419Z,66.33
2018-05-13T16:26:43.799Z,66.48
2018-05-13T16:29:13.155Z,66.87
2018-05-13T16:31:41.538Z,67.08
2018-05-13T16:34:09.934Z,67.25
2018-05-13T16:36:38.987Z,67.49
2018-05-13T16:39:07.405Z,68.53
2018-05-13T16:41:35.748Z,68.29
2018-05-13T16:44:04.106Z,68.45
2018-05-13T16:46:32.495Z,68.35
2018-05-13T16:49:01.812Z,68.50
2018-05-13T16:51:30.223Z,68.07
2018-05-13T16:53:58.733Z,67.54
2018-05-13T16:56:27.020Z,67.61
2018-05-13T16:58:55.445Z,67.83
2018-05-13T17:01:23.796Z,67.88
2018-05-13T17:03:52.145Z,68.26
2018-05-13T17:06:20.866Z,68.64
2018-05-13T17:08:49.269Z,68.79
2018-05-13T17:11:17.595Z,69.36
2018-05-13T17:13:46.029Z,70.59
2018-05-13T17:16:16.397Z,71.07
2018-05-13T17:18:44.879Z,71.68
2018-05-13T17:21:13.219Z,71.63
2018-05-13T17:23:41.574Z,71.81
2018-05-13T17:26:12.308Z,71.79
2018-05-13T17:28:42.234Z,71.74
2018-05-13T17:31:10.640Z,72.77
2018-05-13T17:33:39.030Z,72.75
2018-05-13T17:36:08.250Z,73.19
2018-05-13T17:38:36.557Z,73.55
2018-05-13T17:41:05.140Z,73.14
2018-05-13T17:43:33.484Z,73.77
2018-05-13T17:46:01.866Z,74.21
2018-05-13T17:48:30.211Z,73.99
2018-05-13T17:50:58.625Z,74.12
2018-05-13T17:53:26.987Z,73.87
2018-05-13T17:55:55.338Z,74.05
2018-05-13T17:58:23.694Z,74.07
2018-05-13T18:00:52.073Z,74.20
2018-05-13T18:03:20.499Z,74.71
2018-05-13T18:05:49.226Z,74.85
2018-05-13T18:08:17.575Z,75.17
2018-05-13T18:10:45.971Z,75.16
2018-05-13T18:13:14.550Z,75.29
2018-05-13T18:15:42.885Z,75.50
2018-05-13T18:18:11.228Z,75.84
2018-05-13T18:20:39.627Z,75.85
2018-05-13T18:23:07.943Z,75.41
2018-05-13T18:25:36.254Z,74.81
2018-05-13T18:28:04.600Z,75.01
2018-05-13T18:30:33.341Z,75.80
2018-05-13T18:33:01.664Z,76.30
2018-05-13T18:35:30.039Z,76.18
2018-05-13T18:37:58.689Z,75.96
2018-05-13T18:40:26.959Z,76.07
2018-05-13T18:42:55.263Z,76.13
2018-05-13T18:45:23.763Z,75.12
2018-05-13T18:47:53.067Z,75.56
2018-05-13T18:50:23.625Z,75.62
2018-05-13T18:52:51.950Z,75.69
2018-05-13T18:55:20.306Z,76.02
2018-05-13T18:57:49.601Z,76.14
2018-05-13T19:00:17.914Z,76.07
2018-05-13T19:02:46.292Z,75.84
2018-05-13T19:05:16.776Z,75.58
2018-05-13T19:07:45.165Z,75.60
2018-05-13T19:10:13.496Z,75.34
2018-05-13T19:12:42.338Z,75.40
2018-05-13T19:15:10.675Z,75.30
2018-05-13T19:17:39.033Z,75.72
2018-05-13T19:20:07.429Z,76.49
2018-05-13T19:22:35.759Z,75.96
2018-05-13T19:25:04.111Z,76.02
2018-05-13T19:27:32.471Z,76.55
2018-05-13T19:30:00.791Z,76.94
2018-05-13T19:32:29.183Z,77.31
2018-05-13T19:34:57.541Z,77.55
2018-05-13T19:37:25.863Z,77.15
2018-05-13T19:39:54.218Z,76.54
2018-05-13T19:42:22.582Z,76.53
2018-05-13T19:44:51.156Z,76.83
2018-05-13T19:47:19.451Z,77.12
2018-05-13T19:49:47.817Z,77.17
2018-05-13T19:52:16.175Z,77.19
2018-05-13T19:54:44.530Z,77.43
2018-05-13T19:57:12.823Z,77.54
2018-05-13T19:59:41.095Z,77.90
2018-05-13T20:02:09.784Z,77.93
2018-05-13T20:04:38.131Z,77.64
2018-05-13T20:07:06.503Z,77.96
2018-05-13T20:09:34.854Z,78.42
2018-05-13T20:12:03.216Z,78.70
2018-05-13T20:14:32.499Z,78.70
2018-05-13T20:17:00.847Z,78.81
2018-05-13T20:19:29.222Z,78.91
2018-05-13T20:21:57.889Z,79.22
2018-05-13T20:24:26.249Z,79.56
2018-05-13T20:26:54.530Z,79.07
2018-05-13T20:29:23.170Z,79.61
2018-05-13T20:31:51.476Z,79.71
2018-05-13T20:34:19.766Z,79.57
2018-05-13T20:36:48.141Z,79.84
2018-05-13T20:39:16.449Z,79.51
2018-05-13T20:41:44.755Z,78.98
2018-05-13T20:44:13.062Z,78.59
2018-05-13T20:46:41.405Z,78.04
2018-05-13T20:49:10.085Z,77.84
2018-05-13T20:51:38.368Z,78.29
2018-05-13T20:54:06.701Z,78.29
2018-05-13T20:56:35.325Z,78.84
2018-05-13T20:59:03.918Z,78.65
2018-05-13T21:01:32.266Z,78.74
2018-05-13T21:04:00.860Z,78.21
2018-05-13T21:06:29.205Z,78.42
2018-05-13T21:08:57.595Z,78.08
2018-05-13T21:11:26.003Z,78.02
2018-05-13T21:13:54.266Z,77.42
2018-05-13T21:16:22.572Z,77.24
2018-05-13T21:18:50.911Z,78.11
2018-05-13T21:21:19.248Z,78.23
2018-05-13T21:23:47.898Z,78.15
2018-05-13T21:26:16.257Z,78.46
2018-05-13T21:28:44.631Z,78.65
2018-05-13T21:31:12.914Z,78.19
2018-05-13T21:33:41.200Z,77.77
2018-05-13T21:36:09.531Z,77.60
2018-05-13T21:38:37.851Z,77.82
2018-05-13T21:41:06.131Z,77.87
2018-05-13T21:43:34.819Z,77.67
2018-05-13T21:46:03.778Z,77.53
2018-05-13T21:48:32.092Z,77.68
2018-05-13T21:51:00.876Z,77.97
2018-05-13T21:53:29.197Z,78.14
2018-05-13T21:55:57.511Z,77.79
2018-05-13T21:58:26.523Z,77.85
2018-05-13T22:00:54.843Z,77.90
2018-05-13T22:03:23.155Z,78.30
2018-05-13T22:05:51.543Z,78.60
2018-05-13T22:08:19.922Z,78.68
2018-05-13T22:10:49.219Z,78.59
2018-05-13T22:13:17.523Z,79.00
2018-05-13T22:15:45.875Z,79.44
2018-05-13T22:18:14.210Z,79.66
2018-05-13T22:20:42.552Z,79.89
2018-05-13T22:23:10.880Z,80.42
2018-05-13T22:25:39.196Z,80.26
2018-05-13T22:28:07.581Z,80.60
2018-05-13T22:30:35.899Z,80.93
2018-05-13T22:33:04.171Z,81.14
2018-05-13T22:35:32.443Z,80.89
2018-05-13T22:38:01.091Z,80.95
2018-05-13T22:40:29.391Z,80.55
2018-05-13T22:42:57.679Z,80.84
2018-05-13T22:45:25.981Z,81.07
2018-05-13T22:47:54.247Z,80.96
2018-05-13T22:50:22.519Z,81.15
2018-05-13T22:52:50.983Z,80.96
2018-05-13T22:55:19.362Z,81.21
2018-05-13T22:57:47.834Z,81.35
2018-05-13T23:00:16.482Z,81.23
2018-05-13T23:02:44.853Z,80.82
2018-05-13T23:05:13.210Z,80.68
2018-05-13T23:07:41.584Z,80.63
2018-05-13T23:10:10.010Z,80.65
2018-05-13T23:12:38.346Z,80.49
2018-05-13T23:15:06.716Z,80.53
2018-05-13T23:17:35.086Z,80.55
2018-05-13T23:20:03.770Z,80.30
2018-05-13T23:22:33.020Z,80.24
2018-05-13T23:25:01.425Z,80.26
2018-05-13T23:27:29.943Z,79.99
2018-05-13T23:29:58.300Z,80.15
2018-05-13T23:32:26.660Z,80.40
2018-05-13T23:34:55.430Z,80.71
2018-05-13T23:37:23.835Z,80.38
2018-05-13T23:39:52.203Z,80.10
2018-05-13T23:42:21.307Z,79.87
2018-05-13T23:44:49.815Z,80.66
2018-05-13T23:47:18.178Z,80.25
2018-05-13T23:49:46.520Z,79.79
2018-05-13T23:52:15.203Z,80.17
2018-05-13T23:54:43.541Z,80.76
2018-05-13T23:57:11.894Z,80.85
2018-05-13T23:59:40.235Z,80.89
